Alaska — SYDS — position and weather

sailwx.info

Track history (hours):
 
Tides and Currents Weather Stations Pressure Air Temp Water Temp Dewpoint Dewpoint Depression Visibility Wind Speed Wind Dir Waves Ship Positions

Alaska

Last reported at 2015-May-30 22:32 UTC. Time now 2015-May-30 22:35 UTC.
Position N 49°53' W 000°32'.

Length 274 m; draft 15.6 m.

Type: Tanker. MMSI: 240472000.

Date/timePositionNaut miles runAvg speedWind from/ knotsBaromVisibWave heightAir tempDewpointWater temp
2015-May-30 22:32N 49°53' W 000°32'8 8.5
2015-May-30 21:33N 49°50' W 000°21'1212.2
2015-May-30 20:33N 49°44' W 000°04'9 8.7
2015-May-30 19:33N 49°40' E 000°08'0 0.0
2015-May-29 07:26N 49°40' E 000°08'0 0.3
2015-May-29 06:33N 49°40' E 000°08'8 8.4
2015-May-29 05:33N 49°44' W 000°03'7 6.6
2015-May-29 04:32N 49°45' W 000°14'0 0.4
2015-May-29 03:33N 49°46' W 000°14'0 0.0
2015-May-29 02:33N 49°46' W 000°14'0 0.1
2015-May-29 01:33N 49°45' W 000°14'0 0.2
2015-May-29 00:33N 49°45' W 000°14'0 0.0
2015-May-28 23:33N 49°45' W 000°14'3 3.0
2015-May-28 22:33N 49°48' W 000°17'5 5.1
2015-May-28 21:33N 49°50' W 000°24'8 7.6
2015-May-28 20:33N 49°54' W 000°34'9 8.2
2015-May-28 19:27N 49°55' W 000°48'1213.0
2015-May-28 18:33N 49°54' W 001°06'20812.2
2015-May-28 01:29N 48°25' W 005°53'1212.3
2015-May-28 00:33N 48°15' W 006°01'1412.4
2015-May-27 23:26N 48°03' W 006°11'1011.3
2015-May-27 22:33N 47°54' W 006°19'1312.2
2015-May-27 21:30N 47°43' W 006°29'1513.8
2015-May-27 20:27N 47°30' W 006°39'51112.0
2015-May-26 02:03N 39°38' W 011°07'912.6
2015-May-26 01:21N 39°30' W 011°10'1112.4
2015-May-26 00:30N 39°19' W 011°14'1312.6
2015-May-25 23:27N 39°07' W 011°18'1413.0
2015-May-25 22:23N 38°53' W 011°23'1313.1
2015-May-25 21:25N 38°41' W 011°27'1113.3
2015-May-25 20:33N 38°30' W 011°31'1313.3
2015-May-25 19:33N 38°17' W 011°35'1313.3
2015-May-25 18:33N 38°04' W 011°40'1313.0
2015-May-25 17:33N 37°52' W 011°44'1312.6
2015-May-25 16:33N 37°40' W 011°48'1212.4
2015-May-25 15:33N 37°28' W 011°53'1312.5
2015-May-25 14:33N 37°15' W 011°56'1612.9
2015-May-25 13:19N 37°00' W 012°02'3812.8
2015-May-25 10:20N 36°23' W 012°14'  
Track history (hours):
 
Tides and Currents Weather Stations Pressure Air Temp Water Temp Dewpoint Dewpoint Depression Visibility Wind Speed Wind Dir Waves Ship Positions

Alaska

Last reported at 2015-May-30 22:32 UTC. Time now 2015-May-30 22:36 UTC.
Position N 49°53' W 000°32'.

Length 274 m; draft 15.6 m.

Type: Tanker. MMSI: 240472000.

Date/timePositionNaut miles runAvg speedWind from/ knotsBaromVisibWave heightAir tempDewpointWater temp
2015-May-30 22:32N 49°53' W 000°32'8 8.5
2015-May-30 21:33N 49°50' W 000°21'1212.2
2015-May-30 20:33N 49°44' W 000°04'9 8.7
2015-May-30 19:33N 49°40' E 000°08'0 0.0
2015-May-29 07:26N 49°40' E 000°08'0 0.3
2015-May-29 06:33N 49°40' E 000°08'8 8.4
2015-May-29 05:33N 49°44' W 000°03'7 6.6
2015-May-29 04:32N 49°45' W 000°14'0 0.4
2015-May-29 03:33N 49°46' W 000°14'0 0.0
2015-May-29 02:33N 49°46' W 000°14'0 0.1
2015-May-29 01:33N 49°45' W 000°14'0 0.2
2015-May-29 00:33N 49°45' W 000°14'0 0.0
2015-May-28 23:33N 49°45' W 000°14'3 3.0
2015-May-28 22:33N 49°48' W 000°17'5 5.1
2015-May-28 21:33N 49°50' W 000°24'8 7.6
2015-May-28 20:33N 49°54' W 000°34'9 8.2
2015-May-28 19:27N 49°55' W 000°48'1213.0
2015-May-28 18:33N 49°54' W 001°06'20812.2
2015-May-28 01:29N 48°25' W 005°53'1212.3
2015-May-28 00:33N 48°15' W 006°01'1412.4
2015-May-27 23:26N 48°03' W 006°11'1011.3
2015-May-27 22:33N 47°54' W 006°19'1312.2
2015-May-27 21:30N 47°43' W 006°29'1513.8
2015-May-27 20:27N 47°30' W 006°39'51112.0
2015-May-26 02:03N 39°38' W 011°07'912.6
2015-May-26 01:21N 39°30' W 011°10'1112.4
2015-May-26 00:30N 39°19' W 011°14'1312.6
2015-May-25 23:27N 39°07' W 011°18'1413.0
2015-May-25 22:23N 38°53' W 011°23'1313.1
2015-May-25 21:25N 38°41' W 011°27'1113.3
2015-May-25 20:33N 38°30' W 011°31'1313.3
2015-May-25 19:33N 38°17' W 011°35'1313.3
2015-May-25 18:33N 38°04' W 011°40'1313.0
2015-May-25 17:33N 37°52' W 011°44'1312.6
2015-May-25 16:33N 37°40' W 011°48'1212.4
2015-May-25 15:33N 37°28' W 011°53'1312.5
2015-May-25 14:33N 37°15' W 011°56'1612.9
2015-May-25 13:19N 37°00' W 012°02'3812.8
2015-May-25 10:20N 36°23' W 012°14'  

Dump ship's entire track history